Hlavní strana
METAR-TAF:

METAR-TAF

Letiště :

Wright-Pattersonova letecká základna

Dayton, Ohio, Spojené státy americké

zeměpisná šířka: 39-50N, zeměpisná délka: 084-03W, výška: 251 m

Aktuální stav počasí

Zpráva byla vytvořena před 45 minutami, v 02:56 UTC
Jihojihozápadní vítr 7 kt
Teplota -5°C
Vlhkost vzduchu 53%
Tlak 1031 hPa
Viditelnost: 16.1 km
Jasno

METAR: KFFO 220256Z AUTO 21007KT 10SM CLR M05/M13 A3045 RMK AO2 SLP327 T10541135 57014

Čas: 22:41 (03:41 UTC)

Předpověď počasí

Zpráva byla vytvořena před 41 minutami, v 03:00 UTC
Předpověď platná od 22 v 03 UTC do 23 v 09 UTC
Západojihozápadní vítr 9 kt
Viditelnost 10 km a více
Jasno
Změna
od 22 v 17 UTC do 22 v 18 UTC
Jihozápadní vítr 12 kt s nárazy do 18 kt
Viditelnost 10 km a více
Jasno
Změna
od 22 v 23 UTC do 22 v 24 UTC
Jihojihozápadní vítr 6 kt
Viditelnost 10 km a více
Jasno

TAF: KFFO 220300Z 2203/2309 25009KT 9999 SKC QNH3037INS BECMG 2217/2218 22012G18KT 9999 SKC QNH3026INS BECMG 2223/2224 21006KT 9999 SKC QNH3019INS TX05/2221Z TNM06/2212Z

Stav a předpovědi počasí z více než 4 000 letišť (zprávy METAR a TAF).

Červené a žluté tečky na mapě představují dostupné meteorologické stanice.

Když kurzor umístíte na tečku, zobrazí se název stanice.

Pak kliknutím zobrazíte stav a předpověď počasí.

Chcete-li změnit mapu, kliknutím na zelené tlačítko se znaménkem +mapu přiblížíte, kliknutím na zelené tlačítko se znaménkem – mapu oddálíte a kliknutím na zelené šipky přejdete na sousední mapy.


METAR-TAF: